Latest Weather Observations for Parndana

IDS60801

Issued at 1:32 pm CST Saturday 25 April 2015 (issued every 30 minutes, with the page automatically refreshed every 10 minutes)

About weather observations | Map of weather stations | Latest weather observations for SA | Other Formats
Station Details ID: 022843 Name: PARNDANA CFS AWS Lat: -35.79 Lon: 137.25 Height: 165.0 m
Data from the previous 72 hours. | See also: Recent months at Parndana
Date/Time
CST
Temp
°C
App
Temp
°C
Dew
Point
Rel
Hum
%
Delta-T
°C
Wind Press
QNH
hPa
Press
MSL
hPa
Rain
since 9 am
mm
Dir
 
Spd
km/h
Gust
km/h
Spd
kts
Gust
kts
25/01:30pm 12.7 7.1 11.4 92 0.7 S 32 48 17 26 - - 1.2
25/01:00pm 13.8 8.0 11.5 86 1.2 SSE 33 44 18 24 - - 1.0
25/12:35pm 14.0 7.8 11.5 85 1.3 S 35 57 19 31 - - 0.6
25/12:30pm 14.5 8.7 11.5 82 1.6 S 33 46 18 25 - - 0.6
25/12:00pm 14.1 7.8 11.1 82 1.6 S 35 50 19 27 - - 0.6
25/11:30am 13.0 7.3 11.9 93 0.6 S 33 48 18 26 - - 0.4
25/11:00am 13.2 9.1 11.4 89 1.0 SSW 24 35 13 19 - - 0.0
25/10:30am 13.7 9.9 11.0 84 1.4 S 22 30 12 16 - - 0.0
25/10:00am 13.0 9.4 10.5 85 1.3 S 20 32 11 17 - - 0.0
25/09:30am 13.2 8.6 9.6 79 1.9 SSW 24 35 13 19 - - 0.0
25/09:00am 11.8 7.9 9.4 85 1.2 S 20 35 11 19 - - 4.8
25/08:30am 11.4 7.2 9.7 89 0.9 SSW 22 41 12 22 - - 4.8
25/08:00am 11.1 8.3 8.5 84 1.3 SSW 13 15 7 8 - - 4.8
25/07:30am 9.7 7.6 8.3 91 0.7 SW 9 13 5 7 - - 4.8
25/07:00am 10.5 7.3 8.6 88 0.9 S 15 22 8 12 - - 4.8
25/06:30am 9.5 7.5 7.3 86 1.1 S 7 13 4 7 - - 4.8
25/06:00am 9.2 7.3 7.5 89 0.8 S 7 11 4 6 - - 4.8
25/05:30am 9.2 6.1 7.3 88 0.9 S 13 17 7 9 - - 4.8
25/05:00am 9.5 5.3 7.3 86 1.1 S 19 26 10 14 - - 4.8
25/04:30am 9.4 4.9 6.8 84 1.2 SSE 20 24 11 13 - - 4.8
25/04:00am 10.3 5.5 7.4 82 1.4 S 22 28 12 15 - - 4.8
25/03:30am 9.9 5.1 7.2 83 1.3 S 22 32 12 17 - - 4.8
25/03:00am 10.1 5.0 7.7 85 1.2 S 24 37 13 20 - - 4.8
25/02:30am 10.3 5.2 7.5 83 1.4 S 24 33 13 18 - - 4.8
25/02:00am 10.3 4.1 7.9 85 1.2 S 30 41 16 22 - - 4.8
25/01:30am 10.4 4.1 7.6 83 1.4 S 30 41 16 22 - - 4.8
25/01:00am 10.2 4.5 8.5 89 0.8 S 28 39 15 21 - - 4.8
25/12:30am 10.1 3.5 8.4 89 0.8 S 33 46 18 25 - - 4.8
25/12:00am 9.8 3.3 8.2 90 0.8 S 32 43 17 23 - - 4.8
 
Date/Time
CST
Temp
°C
App
Temp
°C
Dew
Point
Rel
Hum
%
Delta-T
°C
Wind Press
QNH
hPa
Press
MSL
hPa
Rain
since 9 am
mm
Dir
 
Spd
km/h
Gust
km/h
Spd
kts
Gust
kts
24/11:30pm 9.4 4.1 8.3 93 0.5 SSW 26 37 14 20 - - 4.6
24/11:00pm 8.6 4.3 7.8 95 0.4 SSW 20 30 11 16 - - 4.4
24/10:30pm 7.6 4.1 7.2 97 0.2 SW 15 20 8 11 - - 4.4
24/10:00pm 7.6 3.7 7.0 96 0.3 SSW 17 22 9 12 - - 4.4
24/09:30pm 7.3 5.1 6.4 94 0.4 SSW 7 7 4 4 - - 4.2
24/09:00pm 7.9 6.4 7.0 94 0.4 SSW 4 4 2 2 - - 4.2
24/08:30pm 8.3 6.1 7.7 96 0.3 NNW 9 13 5 7 - - 4.2
24/08:00pm 8.2 6.3 7.4 95 0.4 NW 7 9 4 5 - - 3.6
24/07:30pm 8.4 5.4 7.5 94 0.4 SW 13 22 7 12 - - 3.6
24/07:00pm 9.4 5.2 8.2 92 0.6 NNW 20 43 11 23 - - 3.2
24/06:30pm 8.4 4.9 7.2 92 0.6 NNW 15 26 8 14 - - 2.8
24/06:02pm 9.3 4.2 7.7 90 0.8 NNW 24 52 13 28 - - 1.8
24/06:00pm 9.4 5.0 7.3 87 1.0 NNW 20 37 11 20 - - 1.4
24/05:30pm 10.1 6.0 7.7 85 1.2 NW 19 26 10 14 - - 0.8
24/05:00pm 10.2 6.3 7.3 82 1.4 NNW 17 35 9 19 - - 0.6
24/04:30pm 10.5 5.3 7.4 81 1.5 NW 24 39 13 21 - - 0.6
24/04:00pm 11.4 4.7 5.7 68 2.7 WNW 30 46 16 25 - - 0.4
24/03:59pm 11.5 5.3 6.2 70 2.5 WNW 28 46 15 25 - - 0.4
24/03:30pm 11.3 7.2 8.5 83 1.4 NW 20 43 11 23 - - 0.4
24/03:01pm 11.4 4.3 5.7 68 2.7 WNW 32 50 17 27 - - 0.2
24/03:00pm 11.9 5.2 5.5 65 3.0 WNW 30 41 16 22 - - 0.2
24/02:30pm 13.8 6.7 5.4 57 4.0 WNW 32 41 17 22 - - 0.2
24/02:00pm 13.2 8.0 7.4 68 2.9 WNW 24 32 13 17 - - 0.2
24/01:30pm 12.8 5.8 5.9 63 3.3 WNW 32 54 17 29 - - 0.0
24/01:17pm 14.4 7.7 5.5 55 4.2 WNW 30 43 16 23 - - 0.0
24/01:00pm 14.4 6.7 7.0 61 3.6 W 37 48 20 26 - - 0.0
24/12:30pm 13.6 4.9 4.2 53 4.3 W 39 50 21 27 - - 0.0
24/12:06pm 14.3 6.9 6.9 61 3.6 W 35 70 19 38 - - 0.0
24/12:00pm 14.3 7.2 8.0 66 3.2 WSW 35 48 19 26 - - 0.0
24/11:30am 12.7 5.5 7.6 71 2.5 WSW 35 48 19 26 - - 0.0
24/11:00am 13.9 6.8 8.1 68 2.9 W 35 48 19 26 - - 0.0
24/10:39am 12.9 6.1 7.8 71 2.5 W 33 52 18 28 - - 0.0
24/10:30am 12.2 5.6 7.9 75 2.1 WSW 32 44 17 24 - - 0.0
24/10:00am 12.1 6.8 8.4 78 1.8 W 26 33 14 18 - - 0.0
24/09:30am 11.4 6.4 8.1 80 1.6 W 24 33 13 18 - - 0.0
24/09:00am 10.7 6.3 8.8 88 0.9 W 22 32 12 17 - - 2.6
24/08:30am 10.0 5.1 8.3 89 0.8 WSW 24 32 13 17 - - 2.6
24/08:03am 10.4 4.9 9.2 92 0.6 WSW 28 48 15 26 - - 2.4
24/08:00am 10.5 5.1 9.4 93 0.6 WSW 28 41 15 22 - - 2.4
24/07:38am 10.9 4.6 9.7 92 0.6 WSW 33 52 18 28 - - 2.4
24/07:30am 11.4 5.8 10.3 93 0.6 WSW 30 41 16 22 - - 2.4
24/07:09am 13.5 9.9 11.9 90 0.9 WNW 22 44 12 24 - - 1.0
24/07:00am 13.9 10.7 11.9 88 1.1 NW 20 26 11 14 - - 0.6
24/06:30am 14.0 10.4 12.9 93 0.6 NNW 24 33 13 18 - - 0.6
24/06:00am 13.3 11.5 12.0 92 0.7 NNW 13 17 7 9 - - 0.4
24/05:30am 13.4 9.7 11.6 89 1.0 NW 22 30 12 16 - - 0.0
24/05:00am 14.2 11.4 12.6 90 0.9 NNW 19 26 10 14 - - 0.0
24/04:30am 14.0 11.1 12.4 90 0.9 NW 19 26 10 14 - - 0.0
24/04:00am 13.9 11.1 12.5 91 0.8 NW 19 28 10 15 - - 0.0
24/03:30am 13.4 12.4 12.3 93 0.6 NNW 9 15 5 8 - - 0.0
24/03:00am 12.9 11.7 11.5 91 0.7 NNW 9 11 5 6 - - 0.0
24/02:30am 12.7 11.0 11.3 91 0.7 NNW 11 15 6 8 - - 0.0
24/02:00am 12.0 10.5 10.6 91 0.7 NNW 9 9 5 5 - - 0.0
24/01:30am 11.7 10.2 10.4 92 0.7 NW 9 11 5 6 - - 0.0
24/01:00am 11.4 10.3 10.1 92 0.7 NW 6 6 3 3 - - 0.0
24/12:30am 11.3 10.3 10.2 93 0.6 NW 6 7 3 4 - - 0.0
24/12:00am 11.1 9.8 10.0 93 0.6 NW 7 7 4 4 - - 0.0
 
Date/Time
CST
Temp
°C
App
Temp
°C
Dew
Point
Rel
Hum
%
Delta-T
°C
Wind Press
QNH
hPa
Press
MSL
hPa
Rain
since 9 am
mm
Dir
 
Spd
km/h
Gust
km/h
Spd
kts
Gust
kts
23/11:30pm 11.1 10.0 10.0 93 0.6 NW 6 7 3 4 - - 0.0
23/11:00pm 11.1 10.0 10.0 93 0.6 NW 6 7 3 4 - - 0.0
23/10:30pm 11.0 9.7 9.9 93 0.6 W 7 9 4 5 - - 0.0
23/10:00pm 11.4 10.1 10.0 91 0.7 WSW 7 7 4 4 - - 0.0
23/09:30pm 11.7 11.1 10.3 91 0.7 WSW 4 4 2 2 - - 0.0
23/09:00pm 12.2 10.7 10.4 89 0.9 WSW 9 11 5 6 - - 0.0
23/08:30pm 12.7 11.7 10.9 89 0.9 WSW 7 9 4 5 - - 0.0
23/08:00pm 12.9 11.5 11.0 88 1.0 SW 9 11 5 6 - - 0.0
23/07:30pm 13.4 11.3 11.3 87 1.1 SW 13 17 7 9 - - 0.0
23/07:00pm 13.9 11.9 11.6 86 1.2 SW 13 17 7 9 - - 0.0
23/06:30pm 14.2 13.1 12.1 87 1.1 SSW 9 15 5 8 - - 0.0
23/06:00pm 14.4 12.8 11.7 84 1.5 SSW 11 15 6 8 - - 0.0
23/05:30pm 14.8 14.2 11.8 82 1.6 SW 6 9 3 5 - - 0.0
23/05:00pm 14.9 13.6 12.4 85 1.4 WNW 11 17 6 9 - - 0.0
23/04:30pm 14.8 12.9 11.9 83 1.6 NW 13 15 7 8 - - 0.0
23/04:00pm 15.1 13.3 12.2 83 1.6 NW 13 17 7 9 - - 0.0
23/03:30pm 16.1 16.4 10.8 71 2.8 CALM 0 9 0 5 - - 0.0
23/03:00pm 16.3 15.8 10.8 70 3.0 S 4 6 2 3 - - 0.0
23/02:30pm 16.5 15.6 10.8 69 3.1 ESE 6 11 3 6 - - 0.0
23/02:00pm 16.6 16.1 10.9 69 3.1 SE 4 7 2 4 - - 0.0
23/01:30pm 16.5 15.3 11.6 73 2.7 E 9 13 5 7 - - 0.0
23/01:00pm 16.1 14.8 11.3 73 2.6 ESE 9 13 5 7 - - 0.0
23/12:30pm 16.2 15.0 11.6 74 2.5 SE 9 15 5 8 - - 0.0
23/12:00pm 15.8 14.6 11.6 76 2.3 SE 9 15 5 8 - - 0.0
23/11:30am 15.6 14.3 11.4 76 2.3 SE 9 13 5 7 - - 0.0
23/11:00am 15.3 14.2 11.9 80 1.9 SSE 9 13 5 7 - - 0.0
23/10:30am 15.0 13.9 11.8 81 1.7 SE 9 15 5 8 - - 0.0
23/10:00am 14.7 13.7 12.2 85 1.4 SE 9 11 5 6 - - 0.0
23/09:30am 14.3 13.3 12.2 87 1.1 SE 9 13 5 7 - - 0.0
23/09:00am 14.1 13.5 12.3 89 1.0 SSE 7 11 4 6 - - 0.0
23/08:30am 13.7 13.4 12.8 94 0.5 SSW 6 7 3 4 - - 0.0
23/08:00am 13.3 13.0 12.7 96 0.3 SSW 6 7 3 4 - - 0.0
23/07:30am 12.4 11.9 11.9 97 0.3 SSW 6 6 3 3 - - 0.0
23/07:00am 12.0 11.3 11.4 96 0.3 SSW 6 7 3 4 - - 0.0
23/06:30am 11.6 11.2 11.0 96 0.3 SSW 4 6 2 3 - - 0.0
23/06:00am 11.6 10.8 11.0 96 0.3 S 6 6 3 3 - - 0.0
23/05:30am 11.2 10.3 10.6 96 0.3 S 6 6 3 3 - - 0.0
23/05:00am 10.8 9.8 10.2 96 0.3 SSW 6 7 3 4 - - 0.0
23/04:30am 10.4 9.1 9.8 96 0.3 SSW 7 7 4 4 - - 0.0
23/04:00am 10.0 8.1 9.2 95 0.4 SSW 9 9 5 5 - - 0.0
23/03:30am 9.9 8.4 9.1 95 0.4 SSW 7 9 4 5 - - 0.0
23/03:00am 10.5 9.1 9.7 95 0.4 S 7 7 4 4 - - 0.0
23/02:30am 10.8 10.1 9.9 94 0.5 S 4 6 2 3 - - 0.0
23/02:00am 10.6 9.2 9.5 93 0.6 SE 7 7 4 4 - - 0.0
23/01:30am 11.1 9.8 10.0 93 0.6 SSE 7 9 4 5 - - 0.0
23/01:00am 11.8 10.2 10.2 90 0.8 SSE 9 11 5 6 - - 0.0
23/12:30am 12.5 10.7 10.7 89 0.9 SSE 11 13 6 7 - - 0.0
23/12:00am 11.9 9.4 9.6 86 1.2 SSE 13 17 7 9 - - 0.0
 
Date/Time
CST
Temp
°C
App
Temp
°C
Dew
Point
Rel
Hum
%
Delta-T
°C
Wind Press
QNH
hPa
Press
MSL
hPa
Rain
since 9 am
mm
Dir
 
Spd
km/h
Gust
km/h
Spd
kts
Gust
kts
22/11:30pm 11.4 8.9 9.7 89 0.9 SSE 13 15 7 8 - - 0.0
22/11:00pm 12.1 8.8 9.7 85 1.2 SSE 17 20 9 11 - - 0.0
22/10:30pm 13.2 10.9 10.4 83 1.5 SSE 13 19 7 10 - - 0.0
22/10:00pm 13.1 10.3 9.9 81 1.7 SSE 15 20 8 11 - - 0.0
22/09:30pm 12.9 10.1 9.9 82 1.6 SSE 15 19 8 10 - - 0.0
22/09:00pm 13.4 10.5 10.9 85 1.3 SSE 17 22 9 12 - - 0.0
22/08:30pm 13.5 10.0 10.9 84 1.4 SSE 20 28 11 15 - - 0.0
22/08:00pm 13.6 10.9 10.4 81 1.7 SSE 15 19 8 10 - - 0.0
22/07:30pm 13.7 10.8 11.0 84 1.4 SSE 17 22 9 12 - - 0.0
22/07:00pm 13.7 11.2 11.2 85 1.3 SSE 15 22 8 12 - - 0.0
22/06:30pm 13.4 11.2 10.8 84 1.4 SSE 13 17 7 9 - - 0.0
22/06:00pm 14.1 10.7 11.3 83 1.5 SSE 20 26 11 14 - - 0.0
22/05:30pm 14.2 11.2 10.6 79 1.9 SSE 17 24 9 13 - - 0.0
22/05:00pm 14.7 11.2 10.1 74 2.4 SSE 19 26 10 14 - - 0.0
22/04:30pm 15.1 11.3 9.2 68 3.1 SE 19 30 10 16 - - 0.0
22/04:00pm 15.4 11.1 9.3 67 3.2 SSE 22 28 12 15 - - 0.0
22/03:30pm 15.8 12.1 9.5 66 3.3 SSE 19 28 10 15 - - 0.0
22/03:00pm 16.5 13.5 9.4 63 3.7 SE 15 22 8 12 - - 0.0
22/02:30pm 16.6 12.9 10.0 65 3.5 SE 20 26 11 14 - - 0.0
22/02:00pm 16.7 12.7 9.1 61 4.0 SE 20 30 11 16 - - 0.0

Other Formats:

Comma delimited format used in spreadsheet applications
http://www.bom.gov.au/fwo/IDS60801/IDS60801.94807.axf

JavaScript Object Notation format (JSON) in row-major order
http://www.bom.gov.au/fwo/IDS60801/IDS60801.94807.json